IBS15PY GCRR-LEMD
Flight info
| Callsign | IBS15PY |
|---|---|
| Flight time | N/A |
| Altitude | 34000 |
| Route | DESUM DCT AKUDA DCT PESAS N858 PARKA Z165 SOTUK |
| Aircraft | A21N/M-SDE2E3FGHIRWXY/LB1 |
Departure
| Time | 2026-05-05 09:21 |
|---|---|
| Airport | César Manrique-Lanzarote Airport (GCRR) |
Arrival
| Time | N/A |
|---|---|
| Airport | Adolfo Suárez Madrid–Barajas Airport (LEMD) |
| Time | Latitude | Longitude | Altitude | Speed | Heading |
|---|---|---|---|---|---|
| 2026-05-05 08:38 | 28.94914 | -13.60813 | 56 ft | 0 kts | 298° |
| 2026-05-05 09:10 | 28.94914 | -13.60812 | 55 ft | 2 kts | 298° |
| 2026-05-05 09:10 | 28.94902 | -13.60786 | 56 ft | 4 kts | 295° |
| 2026-05-05 09:10 | 28.94892 | -13.60763 | 56 ft | 3 kts | 297° |
| 2026-05-05 09:11 | 28.94877 | -13.60744 | 56 ft | 4 kts | 323° |
| 2026-05-05 09:11 | 28.94877 | -13.60748 | 54 ft | 3 kts | 266° |
| 2026-05-05 09:11 | 28.94882 | -13.60719 | 54 ft | 4 kts | 245° |
| 2026-05-05 09:11 | 28.94897 | -13.60694 | 54 ft | 4 kts | 225° |
| 2026-05-05 09:12 | 28.94913 | -13.60675 | 55 ft | 1 kts | 230° |
| 2026-05-05 09:12 | 28.94916 | -13.60671 | 54 ft | 0 kts | 230° |
| 2026-05-05 09:15 | 28.94912 | -13.60675 | 54 ft | 3 kts | 218° |
| 2026-05-05 09:16 | 28.94897 | -13.60652 | 55 ft | 6 kts | 93° |
| 2026-05-05 09:16 | 28.94881 | -13.60605 | 55 ft | 7 kts | 117° |
| 2026-05-05 09:16 | 28.94846 | -13.60561 | 56 ft | 9 kts | 176° |
| 2026-05-05 09:16 | 28.94787 | -13.60593 | 53 ft | 11 kts | 209° |
| 2026-05-05 09:17 | 28.94715 | -13.60635 | 53 ft | 13 kts | 205° |
| 2026-05-05 09:17 | 28.94631 | -13.60679 | 49 ft | 14 kts | 206° |
| 2026-05-05 09:17 | 28.94546 | -13.60730 | 43 ft | 14 kts | 207° |
| 2026-05-05 09:17 | 28.94453 | -13.60783 | 38 ft | 16 kts | 206° |
| 2026-05-05 09:18 | 28.94347 | -13.60845 | 35 ft | 18 kts | 207° |
| 2026-05-05 09:18 | 28.94229 | -13.60913 | 33 ft | 20 kts | 207° |
| 2026-05-05 09:18 | 28.94101 | -13.60987 | 32 ft | 21 kts | 207° |
| 2026-05-05 09:18 | 28.93964 | -13.61067 | 30 ft | 23 kts | 206° |
| 2026-05-05 09:19 | 28.93819 | -13.61149 | 29 ft | 24 kts | 206° |
| 2026-05-05 09:19 | 28.93712 | -13.61213 | 29 ft | 5 kts | 207° |
| 2026-05-05 09:19 | 28.93671 | -13.61219 | 29 ft | 7 kts | 167° |
| 2026-05-05 09:19 | 28.93636 | -13.61176 | 29 ft | 8 kts | 116° |
| 2026-05-05 09:20 | 28.93608 | -13.61111 | 29 ft | 10 kts | 115° |
| 2026-05-05 09:20 | 28.93635 | -13.61047 | 30 ft | 12 kts | 23° |
| 2026-05-05 09:20 | 28.93675 | -13.61026 | 31 ft | 0 kts | 27° |
| 2026-05-05 09:20 | 28.93745 | -13.60984 | 30 ft | 42 kts | 27° |
| 2026-05-05 09:21 | 28.94241 | -13.60698 | 36 ft | 116 kts | 27° |
| 2026-05-05 09:21 | 28.95150 | -13.60171 | 223 ft | 162 kts | 28° |
| 2026-05-05 09:21 | 28.96155 | -13.59581 | 1124 ft | 162 kts | 33° |
| 2026-05-05 09:21 | 28.97056 | -13.58745 | 1668 ft | 177 kts | 45° |
| 2026-05-05 09:22 | 28.98066 | -13.57798 | 2101 ft | 197 kts | 38° |
| 2026-05-05 09:22 | 28.99252 | -13.56803 | 2492 ft | 225 kts | 37° |
| 2026-05-05 09:22 | 29.00572 | -13.55702 | 3027 ft | 242 kts | 37° |
| 2026-05-05 09:22 | 29.01827 | -13.54374 | 3787 ft | 249 kts | 50° |
| 2026-05-05 09:23 | 29.02918 | -13.52799 | 4570 ft | 257 kts | 52° |
| 2026-05-05 09:23 | 29.04014 | -13.51184 | 5314 ft | 263 kts | 51° |
| 2026-05-05 09:23 | 29.05162 | -13.49505 | 6054 ft | 271 kts | 51° |
| 2026-05-05 09:23 | 29.06341 | -13.47787 | 6801 ft | 277 kts | 51° |
| 2026-05-05 09:24 | 29.07544 | -13.46042 | 7543 ft | 282 kts | 50° |
| 2026-05-05 09:24 | 29.08773 | -13.44263 | 8219 ft | 288 kts | 50° |
| 2026-05-05 09:24 | 29.10099 | -13.42522 | 8820 ft | 294 kts | 37° |
| 2026-05-05 09:24 | 29.11903 | -13.41434 | 9399 ft | 295 kts | 12° |
| 2026-05-05 09:25 | 29.13938 | -13.41286 | 10012 ft | 294 kts | 349° |
| 2026-05-05 09:25 | 29.15990 | -13.41687 | 10456 ft | 306 kts | 345° |
| 2026-05-05 09:25 | 29.18113 | -13.42164 | 10780 ft | 323 kts | 345° |
| 2026-05-05 09:25 | 29.20376 | -13.42648 | 11189 ft | 336 kts | 345° |
| 2026-05-05 09:26 | 29.22696 | -13.43120 | 11842 ft | 341 kts | 345° |
| 2026-05-05 09:26 | 29.25050 | -13.43584 | 12546 ft | 344 kts | 345° |
| 2026-05-05 09:26 | 29.27423 | -13.44046 | 13245 ft | 348 kts | 344° |
| 2026-05-05 09:26 | 29.29826 | -13.44513 | 13924 ft | 352 kts | 344° |
| 2026-05-05 09:27 | 29.32256 | -13.44984 | 14588 ft | 355 kts | 344° |
| 2026-05-05 09:27 | 29.34710 | -13.45457 | 15220 ft | 360 kts | 343° |
| 2026-05-05 09:27 | 29.37194 | -13.45937 | 15844 ft | 364 kts | 343° |
| 2026-05-05 09:27 | 29.39706 | -13.46426 | 16474 ft | 368 kts | 343° |
| 2026-05-05 09:28 | 29.42239 | -13.46912 | 17076 ft | 372 kts | 344° |
| 2026-05-05 09:28 | 29.44873 | -13.47054 | 17650 ft | 386 kts | 358° |
| 2026-05-05 09:28 | 29.47574 | -13.46669 | 18206 ft | 394 kts | 1° |
| 2026-05-05 09:28 | 29.50305 | -13.46208 | 18761 ft | 398 kts | 2° |
| 2026-05-05 09:29 | 29.53026 | -13.45749 | 19313 ft | 401 kts | 1° |
| 2026-05-05 09:29 | 29.55808 | -13.45289 | 19855 ft | 404 kts | 1° |
| 2026-05-05 09:29 | 29.58611 | -13.44837 | 20373 ft | 408 kts | 1° |
| 2026-05-05 09:29 | 29.61434 | -13.44387 | 20889 ft | 411 kts | 1° |
| 2026-05-05 09:30 | 29.64285 | -13.43932 | 21383 ft | 415 kts | 1° |
| 2026-05-05 09:30 | 29.67155 | -13.43471 | 21878 ft | 418 kts | 1° |
| 2026-05-05 09:30 | 29.70042 | -13.43006 | 22371 ft | 420 kts | 1° |
| 2026-05-05 09:30 | 29.72946 | -13.42538 | 22824 ft | 423 kts | 0° |
| 2026-05-05 09:31 | 29.75877 | -13.42069 | 23284 ft | 426 kts | 0° |
| 2026-05-05 09:31 | 29.78825 | -13.41596 | 23741 ft | 429 kts | 0° |
| 2026-05-05 09:31 | 29.80787 | -13.41280 | 24029 ft | 431 kts | 0° |
| 2026-05-05 09:31 | 29.84751 | -13.40644 | 24586 ft | 435 kts | 0° |
| 2026-05-05 09:32 | 29.87761 | -13.40160 | 24978 ft | 439 kts | 0° |
| 2026-05-05 09:32 | 29.89771 | -13.39835 | 25231 ft | 441 kts | 0° |
| 2026-05-05 09:32 | 29.92817 | -13.39343 | 25608 ft | 444 kts | 360° |
| 2026-05-05 09:32 | 29.95928 | -13.38841 | 25966 ft | 447 kts | 360° |
| 2026-05-05 09:33 | 29.98983 | -13.38353 | 26316 ft | 450 kts | 360° |
| 2026-05-05 09:33 | 30.02135 | -13.37845 | 26669 ft | 453 kts | 360° |
| 2026-05-05 09:33 | 30.05226 | -13.37346 | 27034 ft | 456 kts | 359° |
| 2026-05-05 09:33 | 30.08377 | -13.36836 | 27362 ft | 459 kts | 360° |
| 2026-05-05 09:34 | 30.11541 | -13.36322 | 27683 ft | 461 kts | 359° |
| 2026-05-05 09:34 | 30.14736 | -13.35807 | 27999 ft | 464 kts | 359° |
| 2026-05-05 09:34 | 30.17950 | -13.35289 | 28321 ft | 466 kts | 359° |
| 2026-05-05 09:34 | 30.21173 | -13.34772 | 28624 ft | 469 kts | 359° |
| 2026-05-05 09:35 | 30.24418 | -13.34248 | 28916 ft | 471 kts | 359° |
| 2026-05-05 09:35 | 30.30941 | -13.33190 | 29496 ft | 476 kts | 359° |
| 2026-05-05 09:35 | 30.34229 | -13.32659 | 29751 ft | 478 kts | 359° |
| 2026-05-05 09:36 | 30.37535 | -13.32122 | 30008 ft | 481 kts | 359° |
| 2026-05-05 09:36 | 30.40856 | -13.31562 | 30259 ft | 485 kts | 1° |
| 2026-05-05 09:36 | 30.44134 | -13.30381 | 30478 ft | 504 kts | 18° |
| 2026-05-05 09:36 | 30.47149 | -13.28198 | 30747 ft | 518 kts | 35° |
| 2026-05-05 09:37 | 30.49657 | -13.25165 | 30988 ft | 527 kts | 51° |
| 2026-05-05 09:37 | 30.51910 | -13.21814 | 31228 ft | 526 kts | 43° |
| 2026-05-05 09:37 | 30.54659 | -13.19164 | 31437 ft | 516 kts | 26° |
| 2026-05-05 09:37 | 30.57814 | -13.17263 | 31652 ft | 509 kts | 18° |
| 2026-05-05 09:38 | 30.61013 | -13.15483 | 31929 ft | 511 kts | 20° |
| 2026-05-05 09:38 | 30.64151 | -13.13489 | 32228 ft | 514 kts | 24° |
| 2026-05-05 09:38 | 30.67207 | -13.11331 | 32536 ft | 514 kts | 26° |
| 2026-05-05 09:38 | 30.70221 | -13.09109 | 32843 ft | 513 kts | 26° |
| 2026-05-05 09:39 | 30.73229 | -13.06876 | 33089 ft | 513 kts | 26° |
| 2026-05-05 09:39 | 30.76236 | -13.04644 | 33305 ft | 513 kts | 26° |
| 2026-05-05 09:39 | 30.79244 | -13.02425 | 33572 ft | 511 kts | 26° |
| 2026-05-05 09:39 | 30.82249 | -13.00215 | 33806 ft | 510 kts | 25° |
| 2026-05-05 09:40 | 30.85252 | -12.98010 | 34007 ft | 510 kts | 25° |
| 2026-05-05 09:40 | 30.88264 | -12.95799 | 34081 ft | 511 kts | 25° |
| 2026-05-05 09:40 | 30.94264 | -12.91377 | 34058 ft | 510 kts | 25° |
| 2026-05-05 09:41 | 31.00231 | -12.86979 | 34038 ft | 509 kts | 26° |
| 2026-05-05 09:41 | 31.06222 | -12.82559 | 34037 ft | 509 kts | 26° |
| 2026-05-05 09:42 | 31.12200 | -12.78143 | 34032 ft | 509 kts | 26° |
| 2026-05-05 09:42 | 31.18189 | -12.73713 | 34038 ft | 508 kts | 26° |
| 2026-05-05 09:43 | 31.24156 | -12.69298 | 34044 ft | 507 kts | 26° |
| 2026-05-05 09:43 | 31.30108 | -12.64886 | 34046 ft | 506 kts | 26° |
| 2026-05-05 09:44 | 31.36047 | -12.60466 | 34045 ft | 506 kts | 26° |
| 2026-05-05 09:44 | 31.41969 | -12.56040 | 34043 ft | 505 kts | 26° |
| 2026-05-05 09:45 | 31.47902 | -12.51612 | 34046 ft | 505 kts | 26° |
| 2026-05-05 09:45 | 31.53819 | -12.47187 | 34037 ft | 504 kts | 26° |
| 2026-05-05 09:46 | 31.59694 | -12.42796 | 34051 ft | 503 kts | 26° |
| 2026-05-05 09:46 | 31.65586 | -12.38381 | 34053 ft | 503 kts | 26° |
| 2026-05-05 09:47 | 31.71486 | -12.33953 | 34052 ft | 502 kts | 26° |
| 2026-05-05 09:47 | 31.77372 | -12.29532 | 34051 ft | 502 kts | 26° |
| 2026-05-05 09:48 | 31.83257 | -12.25097 | 34052 ft | 501 kts | 26° |
| 2026-05-05 09:48 | 31.89133 | -12.20669 | 34049 ft | 500 kts | 26° |
| 2026-05-05 09:49 | 31.94992 | -12.16252 | 34051 ft | 500 kts | 26° |
| 2026-05-05 09:49 | 32.00842 | -12.11823 | 34051 ft | 500 kts | 26° |
| 2026-05-05 09:50 | 32.05712 | -12.08128 | 34050 ft | 500 kts | 26° |